Time;durP1;ratioP1;P1;durP2;ratioP2;P2;SDS_P1;SDS_P2;PMS_P1;PMS_P2;Temp;Humidity;BMP_temperature;BMP_pressure;BME280_temperature;BME280_humidity;BME280_pressure;Samples;Min_cycle;Max_cycle;Signal;HPM_P1;HPM_P2
2022/07/31 00:00:32;;;;;;;;;;;;;;;15.71;86.12;100587.22;1666717;85;20203;-79
2022/07/31 00:03:00;;;;;;;;;;;;;;;15.66;86.07;100586.97;1662794;84;20448;-79
2022/07/31 00:05:26;;;;;;;;;;;;;;;15.62;86.06;100589.22;1673296;84;20191;-79
2022/07/31 00:07:52;;;;;;;;;;;;;;;15.59;86.05;100584.75;1673468;85;21089;-79
2022/07/31 00:10:18;;;;;;;;;;;;;;;15.55;86.05;100593.73;1672389;84;20176;-79
2022/07/31 00:12:44;;;;;;;;;;;;;;;15.52;86.05;100595.47;1670205;85;20187;-79
2022/07/31 00:15:11;;;;;;;;;;;;;;;15.49;86.08;100592.67;1669873;85;20346;-79
2022/07/31 00:17:40;;;;;;;;;;;;;;;15.47;86.10;100596.05;1669874;85;20208;-79
2022/07/31 00:20:08;;;;;;;;;;;;;;;15.45;86.12;100592.71;1677513;84;21106;-79
2022/07/31 00:22:34;;;;;;;;;;;;;;;15.44;86.14;100595.11;1681462;84;20169;-79
2022/07/31 00:25:00;;;;;;;;;;;;;;;15.44;86.16;100603.68;1669958;85;20441;-79
2022/07/31 00:27:26;;;;;;;;;;;;;;;15.43;86.17;100596.63;1667757;84;20245;-79
2022/07/31 00:29:51;;;;;;;;;;;;;;;15.43;86.19;100593.44;1671658;85;20151;-79
2022/07/31 00:32:17;;;;;;;;;;;;;;;15.42;86.22;100600.34;1673956;85;21224;-78
2022/07/31 00:34:43;;;;;;;;;;;;;;;15.40;86.24;100598.38;1673315;85;20222;-79
2022/07/31 00:37:09;;;;;;;;;;;;;;;15.39;86.27;100592.16;1662759;85;20266;-79
2022/07/31 00:39:35;;;;;;;;;;;;;;;15.38;86.32;100593.18;1676007;85;20218;-79
2022/07/31 00:42:01;;;;;;;;;;;;;;;15.35;86.30;100596.27;1676188;84;20156;-78
2022/07/31 00:44:27;;;;;;;;;;;;;;;15.33;86.34;100594.81;1676386;84;21168;-78
2022/07/31 00:46:53;;;;;;;;;;;;;;;15.29;86.37;100595.71;1663853;85;20222;-79
2022/07/31 00:49:18;;;;;;;;;;;;;;;15.26;86.37;100590.73;1657285;85;20276;-78
2022/07/31 00:51:44;;;;;;;;;;;;;;;15.25;86.41;100594.95;1660455;85;20139;-78
2022/07/31 00:54:10;;;;;;;;;;;;;;;15.22;86.43;100587.28;1669049;85;20206;-78
2022/07/31 00:56:36;;;;;;;;;;;;;;;15.20;86.47;100587.47;1672276;85;21176;-78
2022/07/31 00:59:02;;;;;;;;;;;;;;;15.19;86.53;100587.17;1673118;85;20195;-78
2022/07/31 01:01:29;;;;;;;;;;;;;;;15.20;86.56;100590.15;1666991;85;20168;-78
2022/07/31 01:03:55;;;;;;;;;;;;;;;15.18;86.56;100585.50;1665980;85;20195;-78
2022/07/31 01:06:21;;;;;;;;;;;;;;;15.17;86.55;100587.02;1672959;85;20731;-78
2022/07/31 01:08:47;;;;;;;;;;;;;;;15.16;86.58;100584.88;1675538;84;21173;-78
2022/07/31 01:11:20;;;;;;;;;;;;;;;15.16;86.60;100585.38;1672880;84;20196;-78
2022/07/31 01:13:54;;;;;;;;;;;;;;;15.17;86.65;100582.48;1652394;86;20210;-78
2022/07/31 01:16:22;;;;;;;;;;;;;;;15.15;86.66;100581.02;1671619;85;20530;-78
2022/07/31 01:18:48;;;;;;;;;;;;;;;15.13;86.66;100571.80;1673100;84;20158;-78
2022/07/31 01:21:20;;;;;;;;;;;;;;;15.13;86.71;100573.69;1672544;85;21171;-79
2022/07/31 01:24:20;;;;;;;;;;;;;;;15.12;86.73;100570.17;1675723;85;20183;-78
2022/07/31 01:27:03;;;;;;;;;;;;;;;15.11;86.75;100571.19;1659627;85;20213;-78
2022/07/31 01:29:34;;;;;;;;;;;;;;;15.12;86.80;100572.85;1666596;85;20153;-78
2022/07/31 01:32:03;;;;;;;;;;;;;;;15.12;86.82;100575.54;1661411;85;20159;-78
2022/07/31 01:34:38;;;;;;;;;;;;;;;15.09;86.84;100571.91;1659686;86;21350;-78
2022/07/31 01:37:16;;;;;;;;;;;;;;;15.09;86.86;100570.56;1669614;85;20163;-79
2022/07/31 01:39:44;;;;;;;;;;;;;;;15.07;86.88;100564.53;1669371;85;20207;-78
2022/07/31 01:42:10;;;;;;;;;;;;;;;15.08;86.92;100562.69;1674652;84;20155;-78
2022/07/31 01:44:42;;;;;;;;;;;;;;;15.05;86.92;100557.20;1672526;84;20200;-79
2022/07/31 01:47:08;;;;;;;;;;;;;;;15.05;86.95;100559.05;1659054;85;21154;-78
2022/07/31 01:49:33;;;;;;;;;;;;;;;15.03;86.97;100549.83;1675638;84;20185;-78
2022/07/31 01:51:59;;;;;;;;;;;;;;;15.02;86.97;100554.07;1657326;86;20284;-78
2022/07/31 01:54:26;;;;;;;;;;;;;;;15.01;87.00;100551.89;1651167;86;20174;-78
2022/07/31 01:56:51;;;;;;;;;;;;;;;15.03;87.06;100544.97;1675848;85;20820;-78
2022/07/31 01:59:18;;;;;;;;;;;;;;;15.04;87.09;100540.75;1642475;87;21156;-78
2022/07/31 02:01:43;;;;;;;;;;;;;;;15.04;87.10;100541.27;1666777;85;20189;-78
2022/07/31 02:04:09;;;;;;;;;;;;;;;15.00;87.11;100543.51;1674963;85;20250;-78
2022/07/31 02:06:36;;;;;;;;;;;;;;;15.00;87.11;100538.97;1671152;85;20163;-78
2022/07/31 02:09:02;;;;;;;;;;;;;;;14.98;87.13;100536.17;1665613;85;20140;-78
2022/07/31 02:11:28;;;;;;;;;;;;;;;14.95;87.14;100533.88;1660219;85;21256;-78
2022/07/31 02:13:54;;;;;;;;;;;;;;;14.91;87.16;100536.63;1673150;85;20200;-78
2022/07/31 02:16:20;;;;;;;;;;;;;;;14.89;87.16;100527.92;1673313;84;20758;-78
2022/07/31 02:18:49;;;;;;;;;;;;;;;14.87;87.17;100525.95;1673520;85;20184;-78
2022/07/31 02:21:15;;;;;;;;;;;;;;;14.87;87.20;100527.30;1671624;84;20187;-78
2022/07/31 02:23:41;;;;;;;;;;;;;;;14.84;87.17;100524.50;1665466;84;21141;-78
2022/07/31 02:26:07;;;;;;;;;;;;;;;14.82;87.21;100512.27;1666136;84;20354;-78
2022/07/31 02:28:34;;;;;;;;;;;;;;;14.82;87.21;100522.50;1664440;85;20212;-78
2022/07/31 02:31:00;;;;;;;;;;;;;;;14.78;87.23;100515.86;1672950;85;20165;-78
2022/07/31 02:33:26;;;;;;;;;;;;;;;14.79;87.24;100516.69;1673058;85;20163;-79
2022/07/31 02:35:55;;;;;;;;;;;;;;;14.77;87.25;100512.88;1669968;84;22009;-78
2022/07/31 02:38:22;;;;;;;;;;;;;;;14.76;87.28;100513.06;1638758;87;20458;-79
2022/07/31 02:40:50;;;;;;;;;;;;;;;14.73;87.29;100509.42;1665570;85;20496;-78
2022/07/31 02:43:15;;;;;;;;;;;;;;;14.74;87.33;100511.89;1672465;84;20375;-78
2022/07/31 02:45:41;;;;;;;;;;;;;;;14.75;87.34;100510.88;1672009;85;20159;-78
2022/07/31 02:48:08;;;;;;;;;;;;;;;14.74;87.36;100507.06;1725021;82;21084;-78
2022/07/31 02:50:35;;;;;;;;;;;;;;;14.72;87.37;100511.78;1716100;83;20165;-78
2022/07/31 02:53:01;;;;;;;;;;;;;;;14.64;87.33;100505.20;1705207;83;20217;-78
2022/07/31 02:55:26;;;;;;;;;;;;;;;14.63;87.36;100503.56;1712434;84;20235;-78
2022/07/31 02:57:52;;;;;;;;;;;;;;;14.60;87.39;100510.12;1712541;84;20176;-78
2022/07/31 03:00:22;;;;;;;;;;;;;;;14.60;87.41;100505.30;1709261;83;20786;-78
2022/07/31 03:02:49;;;;;;;;;;;;;;;14.59;87.41;100499.59;1704899;84;20150;-78
2022/07/31 03:05:15;;;;;;;;;;;;;;;14.58;87.42;100500.61;1709495;83;20218;-78
2022/07/31 03:07:42;;;;;;;;;;;;;;;14.59;87.46;100500.94;1696015;83;20495;-79
2022/07/31 03:10:11;;;;;;;;;;;;;;;14.56;87.44;100490.59;1701528;84;20169;-78
2022/07/31 03:12:43;;;;;;;;;;;;;;;14.57;87.49;100498.94;1709863;84;21870;-78
2022/07/31 03:15:12;;;;;;;;;;;;;;;14.54;87.49;100496.14;1709503;83;20149;-78
2022/07/31 03:17:38;;;;;;;;;;;;;;;14.53;87.52;100489.64;1710125;82;20185;-78
2022/07/31 03:20:05;;;;;;;;;;;;;;;14.52;87.53;100492.83;1710040;83;20716;-78
2022/07/31 03:22:32;;;;;;;;;;;;;;;14.50;87.56;100488.98;1710170;84;20171;-78
2022/07/31 03:24:58;;;;;;;;;;;;;;;14.48;87.57;100480.31;1709923;84;21812;-78
2022/07/31 03:27:24;;;;;;;;;;;;;;;14.47;87.58;100484.02;1685641;84;20269;-78
2022/07/31 03:29:49;;;;;;;;;;;;;;;14.45;87.61;100485.23;1655188;84;20164;-78
2022/07/31 03:32:15;;;;;;;;;;;;;;;14.43;87.61;100488.09;1711813;83;20405;-78
2022/07/31 03:34:41;;;;;;;;;;;;;;;14.42;87.64;100483.78;1710109;84;20172;-78
2022/07/31 03:37:09;;;;;;;;;;;;;;;14.42;87.65;100482.94;1709781;83;21096;-78
2022/07/31 03:39:34;;;;;;;;;;;;;;;14.40;87.67;100485.80;1710115;84;20165;-78
2022/07/31 03:42:00;;;;;;;;;;;;;;;14.40;87.70;100479.60;1709565;83;20302;-79
2022/07/31 03:44:26;;;;;;;;;;;;;;;14.40;87.71;100484.46;1710100;84;20160;-78
2022/07/31 03:46:52;;;;;;;;;;;;;;;14.40;87.76;100484.46;1709558;84;20266;-78
2022/07/31 03:49:18;;;;;;;;;;;;;;;14.41;87.78;100478.59;1710222;83;21898;-78
2022/07/31 03:51:44;;;;;;;;;;;;;;;14.39;87.81;100476.09;1699310;84;20193;-78
2022/07/31 03:54:10;;;;;;;;;;;;;;;14.39;87.84;100473.40;1668124;85;20717;-78
2022/07/31 03:56:35;;;;;;;;;;;;;;;14.38;87.85;100470.93;1647345;86;20169;-78
2022/07/31 03:59:02;;;;;;;;;;;;;;;14.38;87.89;100473.11;1636502;87;20170;-78
2022/07/31 04:01:28;;;;;;;;;;;;;;;14.38;87.90;100477.13;1662106;85;21139;-78
2022/07/31 04:03:58;;;;;;;;;;;;;;;14.39;87.93;100477.42;1666999;84;20226;-79
2022/07/31 04:06:23;;;;;;;;;;;;;;;14.43;87.95;100475.19;1625078;86;20191;-78
2022/07/31 04:08:49;;;;;;;;;;;;;;;14.44;87.94;100479.03;1636708;86;20189;-78
2022/07/31 04:11:15;;;;;;;;;;;;;;;14.46;87.95;100478.31;1667501;86;20240;-79
2022/07/31 04:13:41;;;;;;;;;;;;;;;14.47;87.97;100479.98;1656774;85;21181;-78
2022/07/31 04:16:07;;;;;;;;;;;;;;;14.50;87.99;100480.94;1657060;84;20163;-78
2022/07/31 04:18:33;;;;;;;;;;;;;;;14.54;87.98;100477.36;1662317;85;20747;-78
2022/07/31 04:20:59;;;;;;;;;;;;;;;14.58;88.01;100481.82;1667567;84;20163;-79
2022/07/31 04:23:25;;;;;;;;;;;;;;;14.59;87.99;100477.62;1668290;85;20168;-79
2022/07/31 04:25:51;;;;;;;;;;;;;;;14.61;88.01;100481.43;1667923;85;20843;-78
2022/07/31 04:28:17;;;;;;;;;;;;;;;14.64;88.00;100483.72;1668181;86;20201;-79
2022/07/31 04:30:43;;;;;;;;;;;;;;;14.67;88.02;100482.02;1668123;85;20266;-79
2022/07/31 04:33:09;;;;;;;;;;;;;;;14.67;88.00;100479.34;1668394;85;20610;-79
2022/07/31 04:35:35;;;;;;;;;;;;;;;14.68;88.01;100482.31;1667920;86;20195;-78
2022/07/31 04:38:01;;;;;;;;;;;;;;;14.70;88.01;100476.26;1668618;86;21039;-78
2022/07/31 04:40:26;;;;;;;;;;;;;;;14.74;88.00;100480.22;1668552;86;20827;-78
2022/07/31 04:42:53;;;;;;;;;;;;;;;14.75;87.97;100479.17;1668336;84;20246;-78
2022/07/31 04:45:19;;;;;;;;;;;;;;;14.77;87.97;100473.11;1668370;86;20465;-78
2022/07/31 04:47:45;;;;;;;;;;;;;;;14.79;87.96;100477.25;1668534;86;20236;-78
2022/07/31 04:50:11;;;;;;;;;;;;;;;14.81;87.94;100477.07;1668354;85;21102;-78
2022/07/31 04:52:37;;;;;;;;;;;;;;;14.81;87.89;100479.76;1651893;86;20169;-78
2022/07/31 04:55:03;;;;;;;;;;;;;;;14.86;87.93;100479.48;1667192;84;20722;-78
2022/07/31 04:57:29;;;;;;;;;;;;;;;14.87;87.92;100473.09;1668272;85;20447;-78
2022/07/31 04:59:55;;;;;;;;;;;;;;;14.93;87.92;100475.48;1668372;85;20152;-79
2022/07/31 05:02:20;;;;;;;;;;;;;;;15.00;87.88;100479.05;1664388;85;21132;-78
2022/07/31 05:04:46;;;;;;;;;;;;;;;15.09;87.89;100479.23;1668143;85;20514;-78
2022/07/31 05:07:12;;;;;;;;;;;;;;;15.18;87.84;100486.09;1666921;85;20208;-78
2022/07/31 05:09:38;;;;;;;;;;;;;;;15.24;87.83;100483.12;1667453;86;20228;-78
2022/07/31 05:12:04;;;;;;;;;;;;;;;15.30;87.76;100482.34;1667679;86;20350;-78
2022/07/31 05:14:30;;;;;;;;;;;;;;;15.37;87.79;100481.36;1647733;85;22144;-78
2022/07/31 05:16:56;;;;;;;;;;;;;;;15.43;87.77;100479.20;1662422;85;20207;-78
2022/07/31 05:19:22;;;;;;;;;;;;;;;15.47;87.70;100485.02;1668366;86;20747;-78
2022/07/31 05:21:48;;;;;;;;;;;;;;;15.56;87.69;100492.41;1677832;84;20157;-78
2022/07/31 05:24:14;;;;;;;;;;;;;;;15.64;87.70;100494.94;1671897;84;20268;-78
2022/07/31 05:26:39;;;;;;;;;;;;;;;15.64;87.65;100501.66;1667470;85;21170;-78
2022/07/31 05:29:06;;;;;;;;;;;;;;;15.66;87.62;100502.28;1667404;84;20177;-78
2022/07/31 05:31:32;;;;;;;;;;;;;;;15.69;87.52;100496.52;1668509;86;20180;-78
2022/07/31 05:33:58;;;;;;;;;;;;;;;15.76;87.53;100504.11;1661680;85;20768;-78
2022/07/31 05:36:24;;;;;;;;;;;;;;;15.87;87.45;100501.64;1651291;83;20214;-78
2022/07/31 05:38:50;;;;;;;;;;;;;;;15.97;87.40;100499.94;1685427;83;21216;-79
2022/07/31 05:41:16;;;;;;;;;;;;;;;16.13;87.42;100502.76;1673274;83;20258;-78
2022/07/31 05:43:42;;;;;;;;;;;;;;;16.30;87.36;100501.34;1663425;85;20308;-79
2022/07/31 05:46:08;;;;;;;;;;;;;;;16.46;87.27;100501.80;1666706;86;20181;-78
2022/07/31 05:48:34;;;;;;;;;;;;;;;16.70;87.24;100502.25;1667411;86;20267;-79
2022/07/31 05:50:59;;;;;;;;;;;;;;;16.96;87.17;100502.23;1666608;85;21985;-79
2022/07/31 05:53:25;;;;;;;;;;;;;;;17.25;87.07;100502.29;1658310;84;20255;-78
2022/07/31 05:55:51;;;;;;;;;;;;;;;17.46;87.00;100498.81;1668237;86;20332;-79
2022/07/31 05:58:18;;;;;;;;;;;;;;;17.78;86.90;100502.98;1667180;85;20775;-79
2022/07/31 06:00:45;;;;;;;;;;;;;;;17.82;86.70;100495.61;1668150;85;20189;-79
2022/07/31 06:03:11;;;;;;;;;;;;;;;18.00;86.57;100499.46;1668211;85;21733;-79
2022/07/31 06:05:39;;;;;;;;;;;;;;;18.20;86.35;100494.77;1640434;86;20164;-79
2022/07/31 06:08:05;;;;;;;;;;;;;;;18.33;86.12;100490.66;1663569;85;20525;-79
2022/07/31 06:10:31;;;;;;;;;;;;;;;18.47;85.88;100481.42;1658615;85;20205;-79
2022/07/31 06:12:57;;;;;;;;;;;;;;;18.67;85.68;100479.93;1662181;85;20760;-79
2022/07/31 06:15:23;;;;;;;;;;;;;;;18.78;85.39;100487.32;1667680;86;21133;-79
2022/07/31 06:17:49;;;;;;;;;;;;;;;18.89;85.07;100487.95;1667934;86;20316;-79
2022/07/31 06:20:15;;;;;;;;;;;;;;;19.10;84.75;100490.77;1668031;85;20161;-79
2022/07/31 06:22:42;;;;;;;;;;;;;;;19.21;84.44;100495.45;1667851;84;20214;-79
2022/07/31 06:25:09;;;;;;;;;;;;;;;19.27;84.09;100488.61;1667885;84;20507;-79
2022/07/31 06:27:35;;;;;;;;;;;;;;;19.42;83.84;100487.73;1666403;84;22004;-79
2022/07/31 06:30:02;;;;;;;;;;;;;;;19.62;83.54;100489.39;1667581;85;20614;-79
2022/07/31 06:32:28;;;;;;;;;;;;;;;19.85;83.34;100487.63;1667488;86;20189;-79
2022/07/31 06:34:54;;;;;;;;;;;;;;;19.94;83.00;100486.27;1623496;88;20169;-80
2022/07/31 06:37:20;;;;;;;;;;;;;;;20.01;82.74;100487.53;1643052;85;20907;-79
2022/07/31 06:39:46;;;;;;;;;;;;;;;20.06;82.45;100491.72;1667197;86;21530;-79
2022/07/31 06:42:17;;;;;;;;;;;;;;;20.14;82.04;100485.98;1668504;85;20216;-80
2022/07/31 06:44:43;;;;;;;;;;;;;;;20.14;81.63;100485.98;1667944;85;20454;-79
2022/07/31 06:47:09;;;;;;;;;;;;;;;20.22;81.37;100488.37;1666071;86;20184;-79
2022/07/31 06:49:35;;;;;;;;;;;;;;;20.22;81.04;100496.50;1666677;85;20233;-79
2022/07/31 06:52:00;;;;;;;;;;;;;;;20.28;80.75;100490.19;1669088;85;21554;-79
2022/07/31 06:54:26;;;;;;;;;;;;;;;20.33;80.44;100496.27;1669019;84;20188;-79
2022/07/31 06:56:52;;;;;;;;;;;;;;;20.43;80.23;100493.30;1673340;84;20804;-79
2022/07/31 06:59:18;;;;;;;;;;;;;;;20.44;79.96;100492.22;1671990;85;20235;-79
2022/07/31 07:01:44;;;;;;;;;;;;;;;20.48;79.68;100494.49;1675836;85;20165;-79
2022/07/31 07:04:10;;;;;;;;;;;;;;;20.47;79.41;100490.12;1676017;84;22477;-79
2022/07/31 07:06:36;;;;;;;;;;;;;;;20.50;79.09;100487.78;1670985;85;20260;-79
2022/07/31 07:09:01;;;;;;;;;;;;;;;20.57;78.78;100487.67;1671100;85;20279;-79
2022/07/31 07:11:27;;;;;;;;;;;;;;;20.60;78.56;100481.78;1653798;85;20831;-79
2022/07/31 07:13:54;;;;;;;;;;;;;;;20.56;78.31;100492.78;1671020;84;20177;-79
2022/07/31 07:16:19;;;;;;;;;;;;;;;20.62;78.16;100493.23;1670111;85;21695;-79
2022/07/31 07:18:45;;;;;;;;;;;;;;;20.73;77.93;100496.45;1664183;84;20858;-79
2022/07/31 07:21:12;;;;;;;;;;;;;;;20.70;77.63;100495.58;1673125;85;20165;-80
2022/07/31 07:23:37;;;;;;;;;;;;;;;20.60;77.30;100498.03;1668200;84;20709;-79
2022/07/31 07:26:04;;;;;;;;;;;;;;;20.69;77.15;100495.30;1672959;84;20280;-79
2022/07/31 07:28:30;;;;;;;;;;;;;;;20.76;76.89;100496.81;1670327;84;21603;-79
2022/07/31 07:30:55;;;;;;;;;;;;;;;20.93;76.70;100495.62;1671109;85;20794;-79
2022/07/31 07:33:21;;;;;;;;;;;;;;;20.94;76.52;100490.47;1672121;85;20208;-79
2022/07/31 07:35:47;;;;;;;;;;;;;;;20.89;76.26;100491.20;1673035;84;20725;-79
2022/07/31 07:38:13;;;;;;;;;;;;;;;20.95;76.12;100493.48;1672968;85;20268;-79
2022/07/31 07:40:39;;;;;;;;;;;;;;;21.14;75.92;100499.13;1672757;84;21594;-79
2022/07/31 07:43:05;;;;;;;;;;;;;;;21.17;75.59;100502.72;1672012;84;20473;-79
2022/07/31 07:45:31;;;;;;;;;;;;;;;21.09;75.28;100494.90;1664697;85;20174;-79
2022/07/31 07:47:57;;;;;;;;;;;;;;;21.19;75.18;100496.52;1673063;84;20938;-79
2022/07/31 07:50:23;;;;;;;;;;;;;;;21.31;74.93;100493.27;1673021;85;20165;-79
2022/07/31 07:52:49;;;;;;;;;;;;;;;21.41;74.70;100492.13;1672282;85;21730;-80
2022/07/31 07:55:15;;;;;;;;;;;;;;;21.59;74.49;100491.69;1657775;84;20189;-79
2022/07/31 07:57:43;;;;;;;;;;;;;;;21.84;74.33;100494.92;1633708;86;20197;-79
2022/07/31 08:00:10;;;;;;;;;;;;;;;21.96;74.02;100493.01;1678947;84;20320;-80
2022/07/31 08:02:36;;;;;;;;;;;;;;;22.04;73.71;100493.98;1678284;85;20159;-80
2022/07/31 08:05:02;;;;;;;;;;;;;;;22.11;73.45;100490.59;1665383;86;22377;-80
2022/07/31 08:07:28;;;;;;;;;;;;;;;22.28;73.24;100488.73;1665344;85;20145;-79
2022/07/31 08:09:56;;;;;;;;;;;;;;;22.45;72.95;100478.44;1666369;85;20421;-80
2022/07/31 08:12:23;;;;;;;;;;;;;;;22.56;72.62;100479.70;1664056;84;20931;-80
2022/07/31 08:14:49;;;;;;;;;;;;;;;22.65;72.29;100484.21;1637292;86;20159;-80
2022/07/31 08:17:14;;;;;;;;;;;;;;;22.74;71.87;100478.67;1644845;86;21403;-79
2022/07/31 08:19:40;;;;;;;;;;;;;;;22.85;71.58;100475.88;1669083;85;20247;-79
2022/07/31 08:22:07;;;;;;;;;;;;;;;22.92;71.23;100475.70;1679608;84;20157;-79
2022/07/31 08:24:33;;;;;;;;;;;;;;;23.07;71.01;100477.30;1674698;84;20342;-80
2022/07/31 08:29:44;;;;;;;;;;;;;;;23.12;70.09;100477.88;1668282;85;21780;-80
2022/07/31 08:32:12;;;;;;;;;;;;;;;23.22;69.74;100473.41;1675944;84;20153;-80
2022/07/31 08:34:38;;;;;;;;;;;;;;;23.42;69.46;100473.45;1675256;84;20157;-80
2022/07/31 08:37:05;;;;;;;;;;;;;;;23.45;68.87;100475.66;1672901;85;20573;-80
2022/07/31 08:39:35;;;;;;;;;;;;;;;23.45;68.58;100475.13;1669438;84;20159;-80
2022/07/31 08:42:04;;;;;;;;;;;;;;;23.53;68.27;100474.70;1674050;85;22536;-80
2022/07/31 08:44:30;;;;;;;;;;;;;;;23.53;67.82;100475.23;1675942;85;20169;-80
2022/07/31 08:46:56;;;;;;;;;;;;;;;23.55;67.38;100474.42;1666797;85;20274;-80
2022/07/31 08:49:24;;;;;;;;;;;;;;;23.57;66.96;100473.66;1673137;85;20252;-80
2022/07/31 08:51:50;;;;;;;;;;;;;;;23.61;66.65;100470.72;1675247;83;20401;-80
2022/07/31 08:54:16;;;;;;;;;;;;;;;23.63;66.23;100464.46;1684028;85;21953;-80
2022/07/31 08:56:42;;;;;;;;;;;;;;;23.58;65.55;100468.47;1683954;83;20814;-81
2022/07/31 08:59:08;;;;;;;;;;;;;;;23.55;64.97;100475.25;1678278;84;20223;-80
2022/07/31 09:01:34;;;;;;;;;;;;;;;23.51;64.20;100458.30;1645356;86;20407;-80
2022/07/31 09:04:00;;;;;;;;;;;;;;;23.67;63.85;100461.52;1644240;86;20216;-80
2022/07/31 09:06:26;;;;;;;;;;;;;;;23.77;63.61;100456.19;1675954;85;21869;-80
2022/07/31 09:08:54;;;;;;;;;;;;;;;23.87;63.41;100454.40;1678205;85;20255;-80
2022/07/31 09:11:21;;;;;;;;;;;;;;;23.99;63.23;100454.27;1676091;84;20115;-80
2022/07/31 09:13:57;;;;;;;;;;;;;;;24.01;62.77;100451.27;1644384;86;20412;-80
2022/07/31 09:16:22;;;;;;;;;;;;;;;24.09;62.45;100448.91;1643188;86;20138;-80
2022/07/31 09:18:58;;;;;;;;;;;;;;;24.28;62.12;100447.48;1664998;85;21738;-79
2022/07/31 09:21:24;;;;;;;;;;;;;;;24.19;61.31;100449.04;1677627;85;20250;-78
2022/07/31 09:23:50;;;;;;;;;;;;;;;24.15;60.79;100443.82;1664710;84;20171;-78
2022/07/31 09:26:16;;;;;;;;;;;;;;;24.18;60.47;100439.21;1677404;85;20712;-79
2022/07/31 09:28:44;;;;;;;;;;;;;;;24.16;60.15;100442.75;1677540;84;20215;-79
2022/07/31 09:31:11;;;;;;;;;;;;;;;24.31;60.05;100441.50;1676469;84;22424;-78
2022/07/31 09:33:41;;;;;;;;;;;;;;;24.31;59.54;100446.95;1635173;86;20102;-78
2022/07/31 09:36:05;;;;;;;;;;;;;;;24.26;59.24;100442.84;1665100;85;20121;-79
2022/07/31 09:38:34;;;;;;;;;;;;;;;24.19;58.58;100438.14;1676395;85;20922;-78
2022/07/31 09:41:11;;;;;;;;;;;;;;;24.20;58.25;100446.61;1660232;85;20156;-78
2022/07/31 09:43:37;;;;;;;;;;;;;;;24.17;57.27;100448.45;1677510;84;22506;-78
2022/07/31 09:46:04;;;;;;;;;;;;;;;24.19;56.82;100444.95;1678253;84;20251;-78
2022/07/31 09:48:30;;;;;;;;;;;;;;;24.31;56.62;100440.70;1678116;85;20170;-78
2022/07/31 09:50:58;;;;;;;;;;;;;;;24.42;56.34;100440.26;1676181;85;20508;-78
2022/07/31 09:53:24;;;;;;;;;;;;;;;24.54;56.25;100423.98;1666312;85;20116;-78
2022/07/31 09:55:54;;;;;;;;;;;;;;;24.43;55.71;100433.70;1675238;85;23905;-78
2022/07/31 09:58:22;;;;;;;;;;;;;;;24.40;55.47;100434.23;1674960;84;20137;-78
2022/07/31 10:00:50;;;;;;;;;;;;;;;24.43;55.09;100435.89;1670101;84;20184;-78
2022/07/31 10:03:17;;;;;;;;;;;;;;;24.44;54.73;100432.09;1661539;86;20441;-78
2022/07/31 10:05:44;;;;;;;;;;;;;;;24.43;54.38;100435.06;1669418;85;20186;-78
2022/07/31 10:08:16;;;;;;;;;;;;;;;24.42;54.12;100426.63;1670777;84;21894;-78
2022/07/31 10:10:45;;;;;;;;;;;;;;;24.58;54.03;100424.29;1716852;83;20113;-78
2022/07/31 10:13:14;;;;;;;;;;;;;;;24.71;53.85;100425.20;1708957;82;20208;-79
2022/07/31 10:15:40;;;;;;;;;;;;;;;24.78;53.77;100421.70;1708472;82;20982;-79
2022/07/31 10:18:07;;;;;;;;;;;;;;;24.84;53.52;100427.49;1707481;84;20184;-79
2022/07/31 10:20:34;;;;;;;;;;;;;;;24.90;53.35;100418.28;1707818;83;21807;-78
2022/07/31 10:23:16;;;;;;;;;;;;;;;24.91;53.00;100417.17;1705594;82;21050;-78
2022/07/31 10:25:48;;;;;;;;;;;;;;;24.79;52.62;100409.71;1703998;82;20486;-79
2022/07/31 10:28:14;;;;;;;;;;;;;;;24.82;52.33;100416.00;1710548;82;20472;-79
2022/07/31 10:30:40;;;;;;;;;;;;;;;24.74;52.26;100417.31;1706814;84;20942;-80
2022/07/31 10:33:06;;;;;;;;;;;;;;;24.70;52.20;100409.94;1706794;84;21867;-79
2022/07/31 10:35:33;;;;;;;;;;;;;;;24.62;51.97;100415.88;1705636;82;20970;-79
2022/07/31 10:38:08;;;;;;;;;;;;;;;24.57;51.74;100415.81;1705788;84;20206;-79
2022/07/31 10:40:37;;;;;;;;;;;;;;;24.56;51.29;100407.38;1700144;84;20530;-79
2022/07/31 10:43:27;;;;;;;;;;;;;;;24.55;51.07;100408.45;1704018;83;20142;-79
2022/07/31 10:45:54;;;;;;;;;;;;;;;24.54;50.55;100406.27;1706096;84;22578;-79
2022/07/31 10:48:20;;;;;;;;;;;;;;;24.61;50.23;100412.85;1709810;83;20882;-79
2022/07/31 10:50:46;;;;;;;;;;;;;;;24.77;50.14;100415.98;1709954;83;20457;-79
2022/07/31 10:53:14;;;;;;;;;;;;;;;24.93;49.96;100413.66;1682320;84;20429;-79
2022/07/31 10:55:40;;;;;;;;;;;;;;;24.85;49.68;100408.68;1671304;84;20113;-79
2022/07/31 10:58:13;;;;;;;;;;;;;;;24.90;49.70;100403.81;1668490;84;21333;-80
2022/07/31 11:00:39;;;;;;;;;;;;;;;24.98;49.49;100401.95;1668806;84;20150;-79
2022/07/31 11:03:13;;;;;;;;;;;;;;;25.06;49.41;100404.98;1668771;84;20501;-79
2022/07/31 11:05:39;;;;;;;;;;;;;;;25.19;49.17;100404.50;1668843;84;20401;-79
2022/07/31 11:08:10;;;;;;;;;;;;;;;25.17;48.80;100406.69;1668854;86;20267;-79
2022/07/31 11:10:34;;;;;;;;;;;;;;;25.18;48.45;100402.87;1668659;85;21547;-79
2022/07/31 11:13:05;;;;;;;;;;;;;;;25.25;48.18;100408.92;1668700;86;20125;-79
2022/07/31 11:15:31;;;;;;;;;;;;;;;25.11;47.38;100406.39;1668720;86;20162;-79
2022/07/31 11:17:57;;;;;;;;;;;;;;;24.97;46.87;100417.50;1668681;86;20426;-79
2022/07/31 11:20:27;;;;;;;;;;;;;;;25.00;46.68;100425.16;1668796;84;20181;-79
2022/07/31 11:22:59;;;;;;;;;;;;;;;24.96;46.42;100413.13;1668751;84;22589;-79
2022/07/31 11:25:28;;;;;;;;;;;;;;;25.00;46.45;100414.24;1668671;86;20173;-79
2022/07/31 11:27:56;;;;;;;;;;;;;;;25.04;46.23;100396.25;1668978;84;20181;-79
2022/07/31 11:30:22;;;;;;;;;;;;;;;25.05;46.22;100397.88;1667635;85;20394;-79
2022/07/31 11:32:52;;;;;;;;;;;;;;;25.30;46.39;100405.37;1668801;84;20154;-79
2022/07/31 11:35:28;;;;;;;;;;;;;;;25.30;46.16;100400.73;1667187;86;22451;-79
2022/07/31 11:37:54;;;;;;;;;;;;;;;25.32;46.13;100405.40;1661677;86;20458;-79
2022/07/31 11:40:20;;;;;;;;;;;;;;;25.38;45.77;100402.13;1668771;86;20109;-79
2022/07/31 11:42:46;;;;;;;;;;;;;;;25.46;45.56;100409.00;1668817;86;21094;-79
2022/07/31 11:45:15;;;;;;;;;;;;;;;25.39;45.37;100408.42;1668467;84;20177;-79
2022/07/31 11:47:43;;;;;;;;;;;;;;;25.42;45.13;100401.05;1668905;84;21790;-79
2022/07/31 11:50:09;;;;;;;;;;;;;;;25.40;44.55;100407.34;1668196;84;20148;-79
2022/07/31 11:52:36;;;;;;;;;;;;;;;25.47;44.47;100406.01;1654966;84;20218;-79
2022/07/31 11:55:04;;;;;;;;;;;;;;;25.40;43.83;100405.98;1668134;86;20429;-79
2022/07/31 11:57:33;;;;;;;;;;;;;;;25.37;43.76;100398.32;1668843;84;20121;-79
2022/07/31 12:00:00;;;;;;;;;;;;;;;25.38;43.69;100393.94;1663828;86;21853;-79
2022/07/31 12:02:27;;;;;;;;;;;;;;;25.52;43.45;100393.75;1614881;87;20683;-79
2022/07/31 12:04:52;;;;;;;;;;;;;;;25.53;43.17;100390.48;1608882;89;20220;-79
2022/07/31 12:07:18;;;;;;;;;;;;;;;25.46;42.69;100388.52;1608818;89;20375;-79
2022/07/31 12:09:44;;;;;;;;;;;;;;;25.49;42.24;100386.61;1630916;87;20820;-79
2022/07/31 12:12:10;;;;;;;;;;;;;;;25.46;41.97;100395.34;1630710;86;21874;-79
2022/07/31 12:14:37;;;;;;;;;;;;;;;25.47;41.87;100380.61;1631006;86;20161;-79
2022/07/31 12:17:05;;;;;;;;;;;;;;;25.53;41.70;100389.11;1630712;86;20166;-79
2022/07/31 12:19:33;;;;;;;;;;;;;;;25.49;41.51;100383.88;1630639;86;20463;-79
2022/07/31 12:21:59;;;;;;;;;;;;;;;25.59;41.15;100388.03;1630543;87;20496;-79
2022/07/31 12:24:25;;;;;;;;;;;;;;;25.63;40.78;100387.77;1635496;86;21862;-79
2022/07/31 12:26:53;;;;;;;;;;;;;;;25.61;40.49;100393.52;1634731;86;20817;-79
2022/07/31 12:29:19;;;;;;;;;;;;;;;25.62;40.37;100388.86;1594447;88;20100;-79
2022/07/31 12:31:48;;;;;;;;;;;;;;;25.59;40.10;100392.13;1629707;86;20391;-78
2022/07/31 12:34:31;;;;;;;;;;;;;;;25.59;40.23;100390.77;1630941;88;20174;-79
2022/07/31 12:37:16;;;;;;;;;;;;;;;25.63;40.11;100382.31;1630886;88;22403;-79